sensor_id;sensor_type;location;lat;lon;timestamp;P1;durP1;ratioP1;P2;durP2;ratioP2
75311;SDS011;63906;55.686;37.532;2024-02-04T00:02:17;6.28;;;3.47;;
75311;SDS011;63906;55.686;37.532;2024-02-04T00:07:17;6.93;;;3.17;;
75311;SDS011;63906;55.686;37.532;2024-02-04T00:12:18;6.30;;;3.07;;
75311;SDS011;63906;55.686;37.532;2024-02-04T00:17:18;6.53;;;3.20;;
75311;SDS011;63906;55.686;37.532;2024-02-04T00:22:18;6.10;;;3.30;;
75311;SDS011;63906;55.686;37.532;2024-02-04T00:27:20;5.97;;;2.92;;
75311;SDS011;63906;55.686;37.532;2024-02-04T00:32:20;3.60;;;2.50;;
75311;SDS011;63906;55.686;37.532;2024-02-04T00:37:21;5.70;;;2.70;;
75311;SDS011;63906;55.686;37.532;2024-02-04T00:42:21;4.07;;;2.33;;
75311;SDS011;63906;55.686;37.532;2024-02-04T00:47:30;4.30;;;2.30;;
75311;SDS011;63906;55.686;37.532;2024-02-04T00:52:31;4.28;;;2.22;;
75311;SDS011;63906;55.686;37.532;2024-02-04T00:57:31;4.70;;;2.30;;
75311;SDS011;63906;55.686;37.532;2024-02-04T01:02:32;3.43;;;1.87;;
75311;SDS011;63906;55.686;37.532;2024-02-04T01:07:32;3.60;;;2.10;;
75311;SDS011;63906;55.686;37.532;2024-02-04T01:12:33;4.13;;;2.42;;
75311;SDS011;63906;55.686;37.532;2024-02-04T01:17:33;4.78;;;2.20;;
75311;SDS011;63906;55.686;37.532;2024-02-04T01:22:34;3.72;;;2.40;;
75311;SDS011;63906;55.686;37.532;2024-02-04T01:27:34;4.57;;;2.67;;
75311;SDS011;63906;55.686;37.532;2024-02-04T01:32:35;3.92;;;2.20;;
75311;SDS011;63906;55.686;37.532;2024-02-04T01:37:35;7.33;;;2.47;;
75311;SDS011;63906;55.686;37.532;2024-02-04T01:42:35;2.83;;;1.70;;
75311;SDS011;63906;55.686;37.532;2024-02-04T01:47:36;4.17;;;2.30;;
75311;SDS011;63906;55.686;37.532;2024-02-04T01:52:37;4.78;;;2.20;;
75311;SDS011;63906;55.686;37.532;2024-02-04T01:57:41;5.53;;;2.50;;
75311;SDS011;63906;55.686;37.532;2024-02-04T02:02:42;3.03;;;2.33;;
75311;SDS011;63906;55.686;37.532;2024-02-04T02:07:45;4.40;;;2.05;;
75311;SDS011;63906;55.686;37.532;2024-02-04T02:12:56;3.72;;;2.10;;
75311;SDS011;63906;55.686;37.532;2024-02-04T02:18:07;4.65;;;2.35;;
75311;SDS011;63906;55.686;37.532;2024-02-04T02:23:12;3.38;;;1.90;;
75311;SDS011;63906;55.686;37.532;2024-02-04T02:28:17;3.30;;;1.60;;
75311;SDS011;63906;55.686;37.532;2024-02-04T02:33:20;3.47;;;1.58;;
75311;SDS011;63906;55.686;37.532;2024-02-04T02:43:42;2.85;;;1.65;;
75311;SDS011;63906;55.686;37.532;2024-02-04T02:48:44;2.45;;;1.63;;
75311;SDS011;63906;55.686;37.532;2024-02-04T02:53:44;2.65;;;1.60;;
75311;SDS011;63906;55.686;37.532;2024-02-04T02:58:45;1.87;;;1.03;;
75311;SDS011;63906;55.686;37.532;2024-02-04T03:03:45;2.00;;;1.10;;
75311;SDS011;63906;55.686;37.532;2024-02-04T03:08:46;2.05;;;1.08;;
75311;SDS011;63906;55.686;37.532;2024-02-04T03:13:46;1.53;;;1.10;;
75311;SDS011;63906;55.686;37.532;2024-02-04T03:18:47;0.93;;;0.90;;
75311;SDS011;63906;55.686;37.532;2024-02-04T03:23:47;2.28;;;0.95;;
75311;SDS011;63906;55.686;37.532;2024-02-04T03:28:48;1.03;;;0.60;;
75311;SDS011;63906;55.686;37.532;2024-02-04T03:33:49;1.50;;;0.85;;
75311;SDS011;63906;55.686;37.532;2024-02-04T03:38:50;1.27;;;0.70;;
75311;SDS011;63906;55.686;37.532;2024-02-04T03:43:51;1.05;;;0.50;;
75311;SDS011;63906;55.686;37.532;2024-02-04T03:48:52;0.82;;;0.73;;
75311;SDS011;63906;55.686;37.532;2024-02-04T03:53:52;0.97;;;0.80;;
75311;SDS011;63906;55.686;37.532;2024-02-04T03:58:53;0.97;;;0.67;;
75311;SDS011;63906;55.686;37.532;2024-02-04T04:03:54;0.65;;;0.52;;
75311;SDS011;63906;55.686;37.532;2024-02-04T04:08:54;1.00;;;0.40;;
75311;SDS011;63906;55.686;37.532;2024-02-04T04:13:55;0.65;;;0.52;;
75311;SDS011;63906;55.686;37.532;2024-02-04T04:18:55;0.43;;;0.43;;
75311;SDS011;63906;55.686;37.532;2024-02-04T04:23:56;0.70;;;0.60;;
75311;SDS011;63906;55.686;37.532;2024-02-04T04:28:56;0.77;;;0.50;;
75311;SDS011;63906;55.686;37.532;2024-02-04T04:33:56;0.63;;;0.40;;
75311;SDS011;63906;55.686;37.532;2024-02-04T04:38:57;1.17;;;0.45;;
75311;SDS011;63906;55.686;37.532;2024-02-04T04:43:57;0.50;;;0.30;;
75311;SDS011;63906;55.686;37.532;2024-02-04T04:48:58;0.70;;;0.63;;
75311;SDS011;63906;55.686;37.532;2024-02-04T04:53:58;1.00;;;0.60;;
75311;SDS011;63906;55.686;37.532;2024-02-04T04:58:59;1.33;;;0.50;;
75311;SDS011;63906;55.686;37.532;2024-02-04T05:04:00;0.83;;;0.70;;
75311;SDS011;63906;55.686;37.532;2024-02-04T05:09:00;1.25;;;0.60;;
75311;SDS011;63906;55.686;37.532;2024-02-04T05:14:01;0.80;;;0.60;;
75311;SDS011;63906;55.686;37.532;2024-02-04T05:19:02;1.13;;;0.90;;
75311;SDS011;63906;55.686;37.532;2024-02-04T05:24:03;0.80;;;0.80;;
75311;SDS011;63906;55.686;37.532;2024-02-04T05:29:03;1.02;;;0.38;;
75311;SDS011;63906;55.686;37.532;2024-02-04T05:34:05;1.90;;;0.50;;
75311;SDS011;63906;55.686;37.532;2024-02-04T05:39:14;2.13;;;0.68;;
75311;SDS011;63906;55.686;37.532;2024-02-04T05:44:19;0.50;;;0.40;;
75311;SDS011;63906;55.686;37.532;2024-02-04T05:49:20;0.85;;;0.50;;
75311;SDS011;63906;55.686;37.532;2024-02-04T05:54:20;1.00;;;0.50;;
75311;SDS011;63906;55.686;37.532;2024-02-04T05:59:21;0.70;;;0.40;;
75311;SDS011;63906;55.686;37.532;2024-02-04T06:04:21;0.67;;;0.40;;
75311;SDS011;63906;55.686;37.532;2024-02-04T06:09:22;0.40;;;0.20;;
75311;SDS011;63906;55.686;37.532;2024-02-04T06:14:23;0.55;;;0.30;;
75311;SDS011;63906;55.686;37.532;2024-02-04T06:19:23;0.83;;;0.20;;
75311;SDS011;63906;55.686;37.532;2024-02-04T06:24:24;0.70;;;0.40;;
75311;SDS011;63906;55.686;37.532;2024-02-04T06:29:24;0.80;;;0.70;;
75311;SDS011;63906;55.686;37.532;2024-02-04T06:34:25;1.83;;;0.50;;
75311;SDS011;63906;55.686;37.532;2024-02-04T06:39:25;0.25;;;0.20;;
75311;SDS011;63906;55.686;37.532;2024-02-04T06:44:26;0.60;;;0.20;;
75311;SDS011;63906;55.686;37.532;2024-02-04T06:49:26;1.07;;;0.70;;
75311;SDS011;63906;55.686;37.532;2024-02-04T06:54:27;2.97;;;1.43;;
75311;SDS011;63906;55.686;37.532;2024-02-04T06:59:30;2.10;;;1.23;;
75311;SDS011;63906;55.686;37.532;2024-02-04T07:04:31;1.60;;;1.35;;
75311;SDS011;63906;55.686;37.532;2024-02-04T07:09:31;1.50;;;1.10;;
75311;SDS011;63906;55.686;37.532;2024-02-04T07:14:34;1.05;;;0.95;;
75311;SDS011;63906;55.686;37.532;2024-02-04T07:19:37;0.80;;;0.80;;
75311;SDS011;63906;55.686;37.532;2024-02-04T07:24:38;1.52;;;0.90;;
75311;SDS011;63906;55.686;37.532;2024-02-04T07:29:38;0.83;;;0.77;;
75311;SDS011;63906;55.686;37.532;2024-02-04T07:34:39;1.85;;;1.00;;
75311;SDS011;63906;55.686;37.532;2024-02-04T07:39:39;2.10;;;0.93;;
75311;SDS011;63906;55.686;37.532;2024-02-04T07:44:40;0.80;;;0.80;;
75311;SDS011;63906;55.686;37.532;2024-02-04T07:49:40;1.48;;;0.50;;
75311;SDS011;63906;55.686;37.532;2024-02-04T07:54:44;1.23;;;0.70;;
75311;SDS011;63906;55.686;37.532;2024-02-04T07:59:45;1.20;;;1.00;;
75311;SDS011;63906;55.686;37.532;2024-02-04T08:04:45;0.60;;;0.47;;
75311;SDS011;63906;55.686;37.532;2024-02-04T08:09:46;0.83;;;0.50;;
75311;SDS011;63906;55.686;37.532;2024-02-04T08:14:46;2.00;;;0.50;;
75311;SDS011;63906;55.686;37.532;2024-02-04T08:19:47;1.00;;;0.50;;
75311;SDS011;63906;55.686;37.532;2024-02-04T08:24:47;0.60;;;0.40;;
75311;SDS011;63906;55.686;37.532;2024-02-04T08:29:48;0.95;;;0.60;;
75311;SDS011;63906;55.686;37.532;2024-02-04T08:34:48;0.80;;;0.40;;
75311;SDS011;63906;55.686;37.532;2024-02-04T08:39:49;1.73;;;0.70;;
75311;SDS011;63906;55.686;37.532;2024-02-04T08:44:49;2.13;;;0.70;;
75311;SDS011;63906;55.686;37.532;2024-02-04T08:49:50;2.33;;;0.80;;
75311;SDS011;63906;55.686;37.532;2024-02-04T08:54:50;3.13;;;0.87;;
75311;SDS011;63906;55.686;37.532;2024-02-04T08:59:51;1.13;;;0.67;;
75311;SDS011;63906;55.686;37.532;2024-02-04T09:04:51;2.10;;;0.77;;
75311;SDS011;63906;55.686;37.532;2024-02-04T09:09:52;1.17;;;1.02;;
75311;SDS011;63906;55.686;37.532;2024-02-04T09:14:52;6.30;;;1.25;;
75311;SDS011;63906;55.686;37.532;2024-02-04T09:19:53;4.88;;;1.40;;
75311;SDS011;63906;55.686;37.532;2024-02-04T09:24:53;4.22;;;1.00;;
75311;SDS011;63906;55.686;37.532;2024-02-04T09:29:54;3.60;;;1.30;;
75311;SDS011;63906;55.686;37.532;2024-02-04T09:34:55;1.92;;;1.15;;
75311;SDS011;63906;55.686;37.532;2024-02-04T09:39:56;5.43;;;1.20;;
75311;SDS011;63906;55.686;37.532;2024-02-04T09:44:56;2.55;;;0.80;;
75311;SDS011;63906;55.686;37.532;2024-02-04T09:49:57;2.33;;;0.90;;
75311;SDS011;63906;55.686;37.532;2024-02-04T09:54:59;4.45;;;1.27;;
75311;SDS011;63906;55.686;37.532;2024-02-04T10:00:04;5.25;;;1.65;;
75311;SDS011;63906;55.686;37.532;2024-02-04T10:05:06;4.10;;;1.27;;
75311;SDS011;63906;55.686;37.532;2024-02-04T10:10:07;5.65;;;1.05;;
75311;SDS011;63906;55.686;37.532;2024-02-04T10:15:08;3.95;;;0.93;;
75311;SDS011;63906;55.686;37.532;2024-02-04T10:20:10;3.80;;;0.88;;
75311;SDS011;63906;55.686;37.532;2024-02-04T10:25:11;4.30;;;1.17;;
75311;SDS011;63906;55.686;37.532;2024-02-04T10:30:12;1.23;;;0.73;;
75311;SDS011;63906;55.686;37.532;2024-02-04T10:35:14;6.78;;;1.13;;
75311;SDS011;63906;55.686;37.532;2024-02-04T10:40:15;2.92;;;0.80;;
75311;SDS011;63906;55.686;37.532;2024-02-04T10:45:17;3.85;;;1.30;;
75311;SDS011;63906;55.686;37.532;2024-02-04T10:50:18;4.50;;;1.30;;
75311;SDS011;63906;55.686;37.532;2024-02-04T10:55:21;4.20;;;1.10;;
75311;SDS011;63906;55.686;37.532;2024-02-04T11:00:28;3.65;;;0.98;;
75311;SDS011;63906;55.686;37.532;2024-02-04T11:05:29;2.08;;;0.90;;
75311;SDS011;63906;55.686;37.532;2024-02-04T11:10:31;4.82;;;0.70;;
75311;SDS011;63906;55.686;37.532;2024-02-04T11:15:35;3.42;;;0.93;;
75311;SDS011;63906;55.686;37.532;2024-02-04T11:25:47;2.63;;;0.65;;
75311;SDS011;63906;55.686;37.532;2024-02-04T11:30:51;2.40;;;0.60;;
75311;SDS011;63906;55.686;37.532;2024-02-04T11:35:58;4.45;;;0.70;;
75311;SDS011;63906;55.686;37.532;2024-02-04T11:40:59;1.17;;;0.70;;
75311;SDS011;63906;55.686;37.532;2024-02-04T11:46:02;2.28;;;0.40;;
75311;SDS011;63906;55.686;37.532;2024-02-04T11:51:04;1.75;;;0.70;;
75311;SDS011;63906;55.686;37.532;2024-02-04T11:56:05;1.67;;;0.50;;
75311;SDS011;63906;55.686;37.532;2024-02-04T12:01:09;2.67;;;0.47;;
75311;SDS011;63906;55.686;37.532;2024-02-04T12:06:10;1.23;;;0.50;;
75311;SDS011;63906;55.686;37.532;2024-02-04T12:11:15;0.80;;;0.40;;
75311;SDS011;63906;55.686;37.532;2024-02-04T12:16:17;1.77;;;0.60;;
75311;SDS011;63906;55.686;37.532;2024-02-04T12:21:18;1.48;;;0.77;;
75311;SDS011;63906;55.686;37.532;2024-02-04T12:26:19;1.55;;;0.40;;
75311;SDS011;63906;55.686;37.532;2024-02-04T12:31:20;0.38;;;0.20;;
75311;SDS011;63906;55.686;37.532;2024-02-04T12:36:21;2.20;;;0.50;;
75311;SDS011;63906;55.686;37.532;2024-02-04T12:41:22;1.43;;;0.67;;
75311;SDS011;63906;55.686;37.532;2024-02-04T12:46:24;0.88;;;0.60;;
75311;SDS011;63906;55.686;37.532;2024-02-04T12:51:29;3.08;;;0.57;;
75311;SDS011;63906;55.686;37.532;2024-02-04T12:56:45;0.93;;;0.50;;
75311;SDS011;63906;55.686;37.532;2024-02-04T13:01:50;1.38;;;0.38;;
75311;SDS011;63906;55.686;37.532;2024-02-04T13:06:52;1.70;;;0.50;;
75311;SDS011;63906;55.686;37.532;2024-02-04T13:12:02;1.33;;;0.52;;
75311;SDS011;63906;55.686;37.532;2024-02-04T13:17:06;3.15;;;0.50;;
75311;SDS011;63906;55.686;37.532;2024-02-04T13:22:07;2.78;;;0.70;;
75311;SDS011;63906;55.686;37.532;2024-02-04T13:27:09;1.08;;;0.50;;
75311;SDS011;63906;55.686;37.532;2024-02-04T13:32:10;2.90;;;0.60;;
75311;SDS011;63906;55.686;37.532;2024-02-04T13:37:10;1.27;;;0.50;;
75311;SDS011;63906;55.686;37.532;2024-02-04T13:42:11;1.77;;;0.30;;
75311;SDS011;63906;55.686;37.532;2024-02-04T13:47:11;3.60;;;0.87;;
75311;SDS011;63906;55.686;37.532;2024-02-04T13:52:12;0.63;;;0.38;;
75311;SDS011;63906;55.686;37.532;2024-02-04T13:57:13;1.90;;;0.50;;
75311;SDS011;63906;55.686;37.532;2024-02-04T14:02:13;0.90;;;0.50;;
75311;SDS011;63906;55.686;37.532;2024-02-04T14:07:14;0.73;;;0.40;;
75311;SDS011;63906;55.686;37.532;2024-02-04T14:12:14;0.70;;;0.32;;
75311;SDS011;63906;55.686;37.532;2024-02-04T14:17:15;1.48;;;0.40;;
75311;SDS011;63906;55.686;37.532;2024-02-04T14:22:16;1.67;;;0.43;;
75311;SDS011;63906;55.686;37.532;2024-02-04T14:27:19;2.15;;;0.43;;
75311;SDS011;63906;55.686;37.532;2024-02-04T14:32:20;0.77;;;0.40;;
75311;SDS011;63906;55.686;37.532;2024-02-04T14:37:20;2.17;;;0.80;;
75311;SDS011;63906;55.686;37.532;2024-02-04T14:42:21;0.63;;;0.53;;
75311;SDS011;63906;55.686;37.532;2024-02-04T14:47:21;1.85;;;0.60;;
75311;SDS011;63906;55.686;37.532;2024-02-04T14:52:22;2.90;;;0.57;;
75311;SDS011;63906;55.686;37.532;2024-02-04T14:57:22;2.50;;;0.90;;
75311;SDS011;63906;55.686;37.532;2024-02-04T15:02:23;1.20;;;0.73;;
75311;SDS011;63906;55.686;37.532;2024-02-04T15:07:24;1.42;;;0.65;;
75311;SDS011;63906;55.686;37.532;2024-02-04T15:12:24;2.13;;;0.70;;
75311;SDS011;63906;55.686;37.532;2024-02-04T15:17:25;4.07;;;1.30;;
75311;SDS011;63906;55.686;37.532;2024-02-04T15:22:26;4.32;;;1.25;;
75311;SDS011;63906;55.686;37.532;2024-02-04T15:27:27;1.73;;;1.13;;
75311;SDS011;63906;55.686;37.532;2024-02-04T15:32:28;2.90;;;1.00;;
75311;SDS011;63906;55.686;37.532;2024-02-04T15:37:29;1.95;;;0.85;;
75311;SDS011;63906;55.686;37.532;2024-02-04T15:42:30;1.55;;;1.10;;
75311;SDS011;63906;55.686;37.532;2024-02-04T15:47:31;2.00;;;0.83;;
75311;SDS011;63906;55.686;37.532;2024-02-04T15:52:34;2.53;;;1.05;;
75311;SDS011;63906;55.686;37.532;2024-02-04T15:57:35;1.52;;;1.02;;
75311;SDS011;63906;55.686;37.532;2024-02-04T16:02:37;2.03;;;1.27;;
75311;SDS011;63906;55.686;37.532;2024-02-04T16:07:38;2.28;;;1.20;;
75311;SDS011;63906;55.686;37.532;2024-02-04T16:12:39;1.83;;;0.82;;
75311;SDS011;63906;55.686;37.532;2024-02-04T16:17:41;1.60;;;1.02;;
75311;SDS011;63906;55.686;37.532;2024-02-04T16:22:42;1.77;;;1.10;;
75311;SDS011;63906;55.686;37.532;2024-02-04T16:27:43;3.17;;;1.13;;
75311;SDS011;63906;55.686;37.532;2024-02-04T16:32:47;2.38;;;1.13;;
75311;SDS011;63906;55.686;37.532;2024-02-04T16:37:48;1.70;;;1.00;;
75311;SDS011;63906;55.686;37.532;2024-02-04T16:42:48;2.27;;;1.00;;
75311;SDS011;63906;55.686;37.532;2024-02-04T16:47:49;2.88;;;1.38;;
75311;SDS011;63906;55.686;37.532;2024-02-04T16:52:49;1.30;;;0.90;;
75311;SDS011;63906;55.686;37.532;2024-02-04T16:57:50;2.20;;;1.40;;
75311;SDS011;63906;55.686;37.532;2024-02-04T17:02:50;2.80;;;1.33;;
75311;SDS011;63906;55.686;37.532;2024-02-04T17:07:52;3.85;;;1.52;;
75311;SDS011;63906;55.686;37.532;2024-02-04T17:12:54;1.83;;;1.20;;
75311;SDS011;63906;55.686;37.532;2024-02-04T17:18:01;2.53;;;1.50;;
75311;SDS011;63906;55.686;37.532;2024-02-04T17:23:07;2.38;;;1.45;;
75311;SDS011;63906;55.686;37.532;2024-02-04T17:28:10;2.00;;;1.58;;
75311;SDS011;63906;55.686;37.532;2024-02-04T17:33:13;4.55;;;1.60;;
75311;SDS011;63906;55.686;37.532;2024-02-04T17:38:16;2.83;;;1.35;;
75311;SDS011;63906;55.686;37.532;2024-02-04T17:43:18;2.20;;;1.17;;
75311;SDS011;63906;55.686;37.532;2024-02-04T17:48:20;2.75;;;1.17;;
75311;SDS011;63906;55.686;37.532;2024-02-04T17:53:21;2.50;;;1.10;;
75311;SDS011;63906;55.686;37.532;2024-02-04T17:58:22;3.83;;;1.73;;
75311;SDS011;63906;55.686;37.532;2024-02-04T18:03:23;1.90;;;1.60;;
75311;SDS011;63906;55.686;37.532;2024-02-04T18:08:24;1.88;;;1.23;;
75311;SDS011;63906;55.686;37.532;2024-02-04T18:13:28;2.22;;;1.52;;
75311;SDS011;63906;55.686;37.532;2024-02-04T18:18:28;0.80;;;0.30;;
75311;SDS011;63906;55.686;37.532;2024-02-04T18:23:29;0.90;;;0.30;;
75311;SDS011;63906;55.686;37.532;2024-02-04T18:28:29;0.20;;;0.20;;
75311;SDS011;63906;55.686;37.532;2024-02-04T18:33:32;1.00;;;0.20;;
75311;SDS011;63906;55.686;37.532;2024-02-04T18:38:32;0.30;;;0.20;;
75311;SDS011;63906;55.686;37.532;2024-02-04T18:43:33;2.03;;;0.30;;
75311;SDS011;63906;55.686;37.532;2024-02-04T18:48:34;0.88;;;0.40;;
75311;SDS011;63906;55.686;37.532;2024-02-04T18:53:35;1.20;;;0.30;;
75311;SDS011;63906;55.686;37.532;2024-02-04T18:58:35;3.20;;;1.35;;
75311;SDS011;63906;55.686;37.532;2024-02-04T19:03:36;4.50;;;1.93;;
75311;SDS011;63906;55.686;37.532;2024-02-04T19:08:37;3.53;;;2.20;;
75311;SDS011;63906;55.686;37.532;2024-02-04T19:13:37;2.63;;;1.67;;
75311;SDS011;63906;55.686;37.532;2024-02-04T19:18:38;2.95;;;1.88;;
75311;SDS011;63906;55.686;37.532;2024-02-04T19:23:39;2.33;;;1.70;;
75311;SDS011;63906;55.686;37.532;2024-02-04T19:28:39;2.27;;;1.60;;
75311;SDS011;63906;55.686;37.532;2024-02-04T19:33:40;3.58;;;2.00;;
75311;SDS011;63906;55.686;37.532;2024-02-04T19:38:40;4.43;;;2.20;;
75311;SDS011;63906;55.686;37.532;2024-02-04T19:43:41;3.20;;;1.70;;
75311;SDS011;63906;55.686;37.532;2024-02-04T19:48:41;1.87;;;1.60;;
75311;SDS011;63906;55.686;37.532;2024-02-04T19:53:42;1.70;;;1.40;;
75311;SDS011;63906;55.686;37.532;2024-02-04T19:58:42;2.87;;;1.80;;
75311;SDS011;63906;55.686;37.532;2024-02-04T20:03:43;2.10;;;1.80;;
75311;SDS011;63906;55.686;37.532;2024-02-04T20:08:43;2.10;;;1.80;;
75311;SDS011;63906;55.686;37.532;2024-02-04T20:13:44;2.57;;;1.33;;
75311;SDS011;63906;55.686;37.532;2024-02-04T20:18:47;3.50;;;1.55;;
75311;SDS011;63906;55.686;37.532;2024-02-04T20:23:49;1.65;;;1.20;;
75311;SDS011;63906;55.686;37.532;2024-02-04T20:28:49;1.85;;;1.20;;
75311;SDS011;63906;55.686;37.532;2024-02-04T20:33:50;1.90;;;1.35;;
75311;SDS011;63906;55.686;37.532;2024-02-04T20:38:56;1.90;;;1.73;;
75311;SDS011;63906;55.686;37.532;2024-02-04T20:43:57;2.60;;;2.17;;
75311;SDS011;63906;55.686;37.532;2024-02-04T20:49:05;5.43;;;3.20;;
75311;SDS011;63906;55.686;37.532;2024-02-04T20:54:06;4.28;;;3.78;;
75311;SDS011;63906;55.686;37.532;2024-02-04T20:59:08;4.15;;;3.30;;
75311;SDS011;63906;55.686;37.532;2024-02-04T21:04:09;4.80;;;3.33;;
75311;SDS011;63906;55.686;37.532;2024-02-04T21:09:10;4.70;;;2.97;;
75311;SDS011;63906;55.686;37.532;2024-02-04T21:14:10;5.05;;;3.78;;
75311;SDS011;63906;55.686;37.532;2024-02-04T21:19:11;4.53;;;3.08;;
75311;SDS011;63906;55.686;37.532;2024-02-04T21:24:11;3.67;;;2.50;;
75311;SDS011;63906;55.686;37.532;2024-02-04T21:29:12;3.40;;;2.40;;
75311;SDS011;63906;55.686;37.532;2024-02-04T21:34:12;4.43;;;1.88;;
75311;SDS011;63906;55.686;37.532;2024-02-04T21:39:14;3.03;;;1.90;;
75311;SDS011;63906;55.686;37.532;2024-02-04T21:44:16;4.55;;;1.92;;
75311;SDS011;63906;55.686;37.532;2024-02-04T21:49:17;2.05;;;1.20;;
75311;SDS011;63906;55.686;37.532;2024-02-04T21:54:18;2.15;;;1.00;;
75311;SDS011;63906;55.686;37.532;2024-02-04T21:59:18;1.05;;;0.52;;
75311;SDS011;63906;55.686;37.532;2024-02-04T22:04:22;0.30;;;0.30;;
75311;SDS011;63906;55.686;37.532;2024-02-04T22:09:23;0.55;;;0.40;;
75311;SDS011;63906;55.686;37.532;2024-02-04T22:14:23;2.73;;;0.60;;
75311;SDS011;63906;55.686;37.532;2024-02-04T22:19:24;0.53;;;0.33;;
75311;SDS011;63906;55.686;37.532;2024-02-04T22:24:24;0.30;;;0.30;;
75311;SDS011;63906;55.686;37.532;2024-02-04T22:29:25;0.37;;;0.30;;
75311;SDS011;63906;55.686;37.532;2024-02-04T22:34:25;1.77;;;0.70;;
75311;SDS011;63906;55.686;37.532;2024-02-04T22:39:26;0.32;;;0.30;;
75311;SDS011;63906;55.686;37.532;2024-02-04T22:44:27;1.73;;;0.70;;
75311;SDS011;63906;55.686;37.532;2024-02-04T22:49:27;1.77;;;0.30;;
75311;SDS011;63906;55.686;37.532;2024-02-04T22:54:28;0.55;;;0.40;;
75311;SDS011;63906;55.686;37.532;2024-02-04T22:59:28;2.00;;;0.40;;
75311;SDS011;63906;55.686;37.532;2024-02-04T23:04:31;0.73;;;0.22;;
75311;SDS011;63906;55.686;37.532;2024-02-04T23:09:35;1.95;;;0.55;;
75311;SDS011;63906;55.686;37.532;2024-02-04T23:14:36;0.80;;;0.30;;
75311;SDS011;63906;55.686;37.532;2024-02-04T23:19:37;3.08;;;0.40;;
75311;SDS011;63906;55.686;37.532;2024-02-04T23:24:38;0.93;;;0.50;;
75311;SDS011;63906;55.686;37.532;2024-02-04T23:29:38;1.70;;;0.60;;
75311;SDS011;63906;55.686;37.532;2024-02-04T23:34:39;2.70;;;0.40;;
75311;SDS011;63906;55.686;37.532;2024-02-04T23:39:39;3.20;;;0.50;;
75311;SDS011;63906;55.686;37.532;2024-02-04T23:44:40;1.38;;;0.40;;
75311;SDS011;63906;55.686;37.532;2024-02-04T23:49:40;0.30;;;0.30;;
75311;SDS011;63906;55.686;37.532;2024-02-04T23:54:41;0.20;;;0.20;;
75311;SDS011;63906;55.686;37.532;2024-02-04T23:59:42;0.33;;;0.10;;
